Time,TemperatureF,DewpointF,PressureIn,WindDirection,WindDirectionDegrees,WindSpeedMPH,WindSpeedGustMPH,Humidity,HourlyPrecipIn,Conditions,Clouds,dailyrainin,SoftwareType,DateUTC
2013-12-21 00:22:00,27.0,27.0,-100.00,North,10,1.0,2.0,99,-99.99,,,-99.99,,2013-12-21 06:22:00,
2013-12-21 00:52:00,27.0,27.0,-100.00,North,-999,0.0,0.0,99,-99.99,,,-99.99,,2013-12-21 06:52:00,
2013-12-21 01:22:00,27.0,27.0,-100.00,North,-999,0.0,0.0,99,-99.99,,,-99.99,,2013-12-21 07:22:00,
2013-12-21 01:53:00,27.0,27.0,-100.00,North,10,2.0,6.0,99,-99.99,,,-99.99,,2013-12-21 07:53:00,
2013-12-21 02:22:00,27.0,27.0,-100.00,North,10,3.0,6.0,99,-99.99,,,-99.99,,2013-12-21 08:22:00,
2013-12-21 02:53:00,27.0,26.0,-100.00,North,10,6.0,8.0,99,-99.99,,,-99.99,,2013-12-21 08:53:00,
2013-12-21 03:22:00,27.0,26.0,-100.00,North,10,3.0,6.0,99,-99.99,,,-99.99,,2013-12-21 09:22:00,
2013-12-21 03:54:00,26.0,26.0,-100.00,North,10,3.0,4.0,99,-99.99,,,-99.99,,2013-12-21 09:54:00,
2013-12-21 04:23:00,26.0,26.0,-100.00,North,10,2.0,4.0,99,-99.99,,,-99.99,,2013-12-21 10:23:00,
2013-12-21 04:53:00,26.0,26.0,-100.00,North,10,2.0,4.0,99,-99.99,,,-99.99,,2013-12-21 10:53:00,
2013-12-21 05:23:00,26.0,26.0,-100.00,North,10,3.0,4.0,99,-99.99,,,-99.99,,2013-12-21 11:23:00,
2013-12-21 05:53:00,26.0,26.0,-100.00,North,10,4.0,6.0,99,-99.99,,,-99.99,,2013-12-21 11:53:00,
2013-12-21 06:22:00,26.0,26.0,-100.00,North,-999,0.0,2.0,99,-99.99,,,-99.99,,2013-12-21 12:22:00,
2013-12-21 06:52:00,26.0,26.0,-100.00,North,10,1.0,2.0,99,-99.99,,,-99.99,,2013-12-21 12:52:00,
2013-12-21 07:22:00,26.0,26.0,-100.00,North,-999,0.0,2.0,99,-99.99,,,-99.99,,2013-12-21 13:22:00,
2013-12-21 07:52:00,26.0,26.0,-100.00,North,10,1.0,1.0,99,-99.99,,,-99.99,,2013-12-21 13:52:00,
2013-12-21 08:22:00,26.0,26.0,-100.00,North,10,3.0,4.0,99,-99.99,,,-99.99,,2013-12-21 14:22:00,
2013-12-21 08:53:00,26.0,26.0,-100.00,North,-999,0.0,2.0,99,-99.99,,,-99.99,,2013-12-21 14:53:00,
2013-12-21 09:22:00,26.0,26.0,-100.00,North,-999,0.0,4.0,99,-99.99,,,-99.99,,2013-12-21 15:22:00,
2013-12-21 09:53:00,27.0,27.0,-100.00,North,10,1.0,2.0,99,-99.99,,,-99.99,,2013-12-21 15:53:00,
2013-12-21 10:23:00,27.0,27.0,-100.00,North,-999,0.0,3.0,99,-99.99,,,-99.99,,2013-12-21 16:23:00,
2013-12-21 10:53:00,28.0,27.0,-100.00,North,10,1.0,2.0,99,-99.99,,,-99.99,,2013-12-21 16:53:00,
2013-12-21 11:22:00,28.0,27.0,-100.00,North,10,1.0,3.0,99,-99.99,,,-99.99,,2013-12-21 17:22:00,
2013-12-21 11:53:00,28.0,28.0,-100.00,North,-999,0.0,4.0,99,-99.99,,,-99.99,,2013-12-21 17:53:00,
2013-12-21 12:23:00,28.0,28.0,-100.00,North,-999,0.0,4.0,99,-99.99,,,-99.99,,2013-12-21 18:23:00,
2013-12-21 12:52:00,29.0,28.0,-100.00,North,-999,0.0,2.0,98,-99.99,,,-99.99,,2013-12-21 18:52:00,
2013-12-21 13:22:00,29.0,28.0,-100.00,North,-999,0.0,3.0,98,-99.99,,,-99.99,,2013-12-21 19:22:00,
2013-12-21 13:52:00,29.0,28.0,-100.00,North,10,1.0,5.0,97,-99.99,,,-99.99,,2013-12-21 19:52:00,
2013-12-21 14:23:00,29.0,28.0,-100.00,North,10,1.0,4.0,97,-99.99,,,-99.99,,2013-12-21 20:23:00,
2013-12-21 14:52:00,29.0,28.0,-100.00,North,-999,0.0,4.0,97,-99.99,,,-99.99,,2013-12-21 20:52:00,
2013-12-21 15:22:00,29.0,28.0,-100.00,North,10,1.0,5.0,97,-99.99,,,-99.99,,2013-12-21 21:22:00,
2013-12-21 15:53:00,29.0,28.0,-100.00,North,10,1.0,5.0,97,-99.99,,,-99.99,,2013-12-21 21:53:00,
2013-12-21 16:23:00,29.0,28.0,-100.00,North,10,1.0,5.0,97,-99.99,,,-99.99,,2013-12-21 22:23:00,
2013-12-21 16:53:00,29.0,28.0,-100.00,North,10,1.0,4.0,98,-99.99,,,-99.99,,2013-12-21 22:53:00,
2013-12-21 17:22:00,29.0,28.0,-100.00,North,10,1.0,5.0,98,-99.99,,,-99.99,,2013-12-21 23:22:00,
2013-12-21 17:53:00,29.0,29.0,-100.00,North,10,2.0,6.0,99,-99.99,,,-99.99,,2013-12-21 23:53:00,
2013-12-21 18:22:00,29.0,29.0,-100.00,North,-999,0.0,6.0,99,-99.99,,,-99.99,,2013-12-22 00:22:00,
2013-12-21 18:52:00,29.0,29.0,-100.00,North,10,1.0,6.0,99,-99.99,,,-99.99,,2013-12-22 00:52:00,
2013-12-21 19:22:00,29.0,29.0,-100.00,NNE,15,1.0,5.0,99,-99.99,,,-99.99,,2013-12-22 01:22:00,
2013-12-21 19:52:00,29.0,29.0,-100.00,NNE,15,4.0,11.0,99,-99.99,,,-99.99,,2013-12-22 01:52:00,
2013-12-21 20:22:00,29.0,29.0,-100.00,NNE,15,3.0,6.0,99,-99.99,,,-99.99,,2013-12-22 02:22:00,
2013-12-21 20:52:00,29.0,29.0,-100.00,NNE,15,3.0,6.0,99,-99.99,,,-99.99,,2013-12-22 02:52:00,
2013-12-21 21:22:00,29.0,29.0,-100.00,NNE,15,2.0,8.0,99,-99.99,,,-99.99,,2013-12-22 03:22:00,
2013-12-21 21:54:00,29.0,29.0,-100.00,North,10,2.0,6.0,99,-99.99,,,-99.99,,2013-12-22 03:54:00,
2013-12-21 22:02:00,-999.0,-99.9,-100.00,North,10,2.0,7.0,-999,-99.99,,,-99.99,,2013-12-22 04:02:00,
2013-12-21 22:23:00,29.0,29.0,-100.00,North,10,1.0,8.0,99,-99.99,,,-99.99,,2013-12-22 04:23:00,
2013-12-21 22:53:00,29.0,29.0,-100.00,NNE,15,2.0,7.0,99,-99.99,,,-99.99,,2013-12-22 04:53:00,
2013-12-21 23:22:00,30.0,30.0,-100.00,NNE,15,4.0,9.0,99,-99.99,,,-99.99,,2013-12-22 05:22:00,
2013-12-21 23:53:00,30.0,30.0,-100.00,NNE,15,2.0,11.0,99,-99.99,,,-99.99,,2013-12-22 05:53:00,